Time;durP1;ratioP1;P1;durP2;ratioP2;P2;SDS_P1;SDS_P2;PMS_P1;PMS_P2;Temp;Humidity;BMP_temperature;BMP_pressure;BME280_temperature;BME280_humidity;BME280_pressure;Samples;Min_cycle;Max_cycle;Signal;HPM_P1;HPM_P2
2022/01/06 00:00:11;;;;;;;17.02;6.42;;;;;;;2.61;90.28;99078.89;1581121;89;27461;-79
2022/01/06 00:02:41;;;;;;;14.20;6.62;;;;;;;2.62;90.24;99079.73;1589009;89;26651;-78
2022/01/06 00:05:09;;;;;;;13.08;6.10;;;;;;;2.60;90.31;99068.02;1605491;88;25865;-79
2022/01/06 00:07:35;;;;;;;13.65;7.37;;;;;;;2.61;90.36;99070.17;1602059;88;25845;-78
2022/01/06 00:10:05;;;;;;;14.35;5.97;;;;;;;2.61;90.43;99073.61;1603873;88;26463;-79
2022/01/06 00:12:39;;;;;;;10.95;6.28;;;;;;;2.60;90.63;99072.47;1605733;88;29262;-79
2022/01/06 00:18:09;;;;;;;15.25;6.80;;;;;;;2.62;90.68;99070.47;1556087;88;26669;-79
2022/01/06 00:25:40;;;;;;;11.45;5.50;;;;;;;2.69;90.99;99064.34;1606208;88;27505;-78
2022/01/06 00:28:06;;;;;;;12.13;5.55;;;;;;;2.70;90.97;99058.53;1607364;88;26617;-78
2022/01/06 00:30:32;;;;;;;10.30;5.87;;;;;;;2.72;90.97;99063.14;1603849;88;25787;-78
2022/01/06 00:32:58;;;;;;;10.28;5.05;;;;;;;2.74;91.10;99059.33;1607250;88;25952;-79
2022/01/06 00:35:24;;;;;;;13.43;6.17;;;;;;;2.77;91.10;99065.60;1607463;88;25925;-79
2022/01/06 00:37:50;;;;;;;11.85;6.47;;;;;;;2.77;91.00;99060.31;1603234;88;27548;-79
2022/01/06 00:40:17;;;;;;;10.78;6.35;;;;;;;2.80;91.10;99054.66;1606449;88;26012;-79
2022/01/06 00:42:43;;;;;;;12.45;6.55;;;;;;;2.83;91.16;99052.17;1606431;88;25896;-79
2022/01/06 00:45:10;;;;;;;15.85;6.25;;;;;;;2.85;91.04;99049.68;1603273;88;26035;-79
2022/01/06 00:47:36;;;;;;;12.18;6.45;;;;;;;2.87;91.18;99047.69;1605095;88;25893;-78
2022/01/06 00:50:03;;;;;;;13.32;6.55;;;;;;;2.88;91.12;99051.16;1607398;88;27516;-79
2022/01/06 00:52:30;;;;;;;12.68;6.58;;;;;;;2.90;91.19;99054.45;1603470;88;25953;-79
2022/01/06 00:54:56;;;;;;;11.08;6.53;;;;;;;2.93;91.34;99059.40;1603675;88;25985;-79
2022/01/06 00:57:22;;;;;;;10.98;6.55;;;;;;;2.96;91.31;99059.86;1604153;88;26992;-79
2022/01/06 00:59:48;;;;;;;14.58;6.25;;;;;;;2.97;91.48;99067.30;1603989;88;25355;-79
2022/01/06 01:02:15;;;;;;;14.73;6.53;;;;;;;2.98;91.42;99057.86;1607503;88;28310;-78
2022/01/06 01:04:41;;;;;;;12.53;7.22;;;;;;;3.00;91.47;99056.35;1603578;88;26009;-79
2022/01/06 01:07:08;;;;;;;12.58;6.20;;;;;;;3.02;91.58;99047.25;1603960;88;25745;-79
2022/01/06 01:09:34;;;;;;;14.03;6.42;;;;;;;3.04;91.51;99045.73;1607442;88;25767;-78
2022/01/06 01:12:03;;;;;;;9.18;6.08;;;;;;;3.04;91.53;99048.38;1607347;88;26054;-79
2022/01/06 01:14:33;;;;;;;11.90;6.50;;;;;;;3.04;91.77;99045.73;1603684;88;27516;-79
2022/01/06 01:17:01;;;;;;;10.90;6.83;;;;;;;3.03;92.02;99051.55;1608140;88;25768;-78
2022/01/06 01:19:30;;;;;;;10.85;5.87;;;;;;;3.03;92.16;99058.16;1607200;88;25855;-79
2022/01/06 01:21:57;;;;;;;8.95;5.12;;;;;;;3.02;92.43;99059.64;1603846;88;26590;-79
2022/01/06 01:24:24;;;;;;;12.23;6.50;;;;;;;2.96;92.66;99061.67;1601439;88;25869;-79
2022/01/06 01:26:50;;;;;;;10.45;5.92;;;;;;;2.90;92.72;99059.25;1603227;88;28331;-79
2022/01/06 01:29:18;;;;;;;14.10;7.40;;;;;;;2.87;92.86;99053.46;1602682;88;26413;-78
2022/01/06 01:31:50;;;;;;;9.28;5.78;;;;;;;2.83;92.98;99059.61;1601713;88;25805;-79
2022/01/06 01:34:23;;;;;;;12.43;6.50;;;;;;;2.83;93.28;99058.29;1606630;88;26022;-79
2022/01/06 01:36:45;;;;;;;12.68;7.80;;;;;;;2.82;93.39;99057.95;1606120;88;26606;-78
2022/01/06 01:39:11;;;;;;;13.80;6.97;;;;;;;2.81;93.65;99058.96;1603245;88;27540;-80
2022/01/06 01:41:38;;;;;;;9.00;5.55;;;;;;;2.81;93.96;99064.74;1603919;88;26465;-79
2022/01/06 01:44:12;;;;;;;10.35;6.33;;;;;;;2.82;94.47;99065.88;1601589;88;25963;-79
2022/01/06 01:46:42;;;;;;;9.58;6.00;;;;;;;2.83;94.23;99063.58;1602062;88;26613;-78
2022/01/06 01:51:34;;;;;;;11.78;5.90;;;;;;;2.87;94.29;99068.84;1602948;88;27585;-78
2022/01/06 01:54:01;;;;;;;12.82;6.37;;;;;;;2.89;94.39;99072.13;1602123;88;25789;-79
2022/01/06 01:56:28;;;;;;;13.83;7.08;;;;;;;2.93;94.36;99069.98;1612758;88;25899;-79
2022/01/06 01:58:54;;;;;;;9.13;6.15;;;;;;;2.93;94.52;99070.77;1603710;88;26575;-78
2022/01/06 02:01:21;;;;;;;9.45;6.12;;;;;;;2.95;94.38;99058.72;1603873;88;25862;-79
2022/01/06 02:03:47;;;;;;;11.40;5.95;;;;;;;2.96;94.42;99069.11;1604963;88;27509;-79
2022/01/06 02:06:14;;;;;;;14.13;7.22;;;;;;;2.97;94.35;99077.36;1605996;88;25940;-78
2022/01/06 02:08:40;;;;;;;12.82;6.65;;;;;;;2.98;94.28;99074.22;1607383;88;25844;-79
2022/01/06 02:11:06;;;;;;;13.48;5.65;;;;;;;2.98;94.43;99077.70;1603763;88;27018;-78
2022/01/06 02:13:32;;;;;;;13.45;6.30;;;;;;;2.98;94.45;99068.93;1604466;88;25904;-78
2022/01/06 02:16:01;;;;;;;10.58;6.65;;;;;;;2.97;94.52;99077.88;1606710;88;27493;-80
2022/01/06 02:18:28;;;;;;;13.93;6.78;;;;;;;2.97;94.54;99076.03;1605139;88;25762;-79
2022/01/06 02:20:55;;;;;;;10.82;6.15;;;;;;;3.00;94.53;99076.19;1604240;88;25892;-79
2022/01/06 02:23:21;;;;;;;11.65;7.08;;;;;;;3.01;94.58;99077.85;1606787;88;26001;-78
2022/01/06 02:25:49;;;;;;;11.22;6.53;;;;;;;3.00;94.49;99073.05;1605115;88;25897;-79
2022/01/06 02:28:22;;;;;;;12.43;6.45;;;;;;;3.00;94.67;99082.31;1604520;88;27493;-79
2022/01/06 02:30:51;;;;;;;18.27;7.50;;;;;;;3.01;94.63;99073.88;1606797;88;25945;-79
2022/01/06 02:33:19;;;;;;;9.25;6.05;;;;;;;3.03;94.73;99077.17;1606579;88;25397;-79
2022/01/06 02:35:47;;;;;;;10.45;5.80;;;;;;;3.02;94.79;99077.66;1603781;88;26209;-78
2022/01/06 02:38:14;;;;;;;11.50;6.47;;;;;;;3.04;94.87;99077.48;1601696;88;25798;-78
2022/01/06 02:40:43;;;;;;;10.55;6.47;;;;;;;3.06;94.68;99078.13;1610491;88;27373;-79
2022/01/06 02:43:09;;;;;;;10.93;6.67;;;;;;;3.08;94.66;99077.45;1602939;88;26005;-79
2022/01/06 02:45:36;;;;;;;13.10;7.08;;;;;;;3.09;94.72;99075.14;1602447;88;25830;-79
2022/01/06 02:48:08;;;;;;;9.40;6.37;;;;;;;3.10;94.69;99079.45;1607303;88;26537;-79
2022/01/06 02:50:31;;;;;;;8.88;6.25;;;;;;;3.11;94.80;99072.65;1606069;88;25838;-78
2022/01/06 02:52:57;;;;;;;10.03;6.30;;;;;;;3.11;94.71;99070.00;1602804;88;28302;-78
2022/01/06 02:55:23;;;;;;;7.40;5.47;;;;;;;3.12;94.77;99071.63;1602852;88;25874;-79
2022/01/06 02:57:49;;;;;;;12.05;6.12;;;;;;;3.15;94.73;99071.78;1605091;88;25847;-79
2022/01/06 03:00:17;;;;;;;9.98;6.30;;;;;;;3.14;94.71;99068.83;1603974;88;25792;-79
2022/01/06 03:02:46;;;;;;;10.13;5.60;;;;;;;3.14;94.85;99074.13;1604099;88;25811;-79
2022/01/06 03:05:17;;;;;;;10.80;6.42;;;;;;;3.14;94.92;99078.09;1607298;88;28316;-79
2022/01/06 03:07:45;;;;;;;7.55;5.95;;;;;;;3.16;94.97;99084.03;1604127;88;26551;-79
2022/01/06 03:10:15;;;;;;;6.90;5.50;;;;;;;3.16;94.88;99085.35;1604229;88;25955;-79
2022/01/06 03:12:43;;;;;;;9.08;6.42;;;;;;;3.16;95.04;99077.41;1607063;88;25948;-79
2022/01/06 03:15:17;;;;;;;10.90;6.33;;;;;;;3.17;95.00;99084.33;1603392;88;25972;-78
2022/01/06 03:17:50;;;;;;;9.85;6.17;;;;;;;3.18;95.04;99080.70;1603524;88;28283;-78
2022/01/06 03:20:19;;;;;;;10.10;6.35;;;;;;;3.20;95.03;99084.48;1603154;88;25644;-78
2022/01/06 03:22:45;;;;;;;12.75;6.87;;;;;;;3.19;95.04;99091.59;1603379;88;26216;-79
2022/01/06 03:25:14;;;;;;;9.15;4.85;;;;;;;3.21;95.17;99096.73;1599689;88;25914;-79
2022/01/06 03:27:41;;;;;;;7.42;5.65;;;;;;;3.21;95.52;99096.20;1603648;88;25902;-78
2022/01/06 03:30:12;;;;;;;8.33;6.00;;;;;;;3.21;95.61;99101.50;1610937;88;27510;-79
2022/01/06 03:32:39;;;;;;;12.78;6.80;;;;;;;3.21;95.53;99112.08;1603647;88;25850;-79
2022/01/06 03:35:07;;;;;;;10.13;6.28;;;;;;;3.23;95.63;99106.64;1609711;88;26028;-79
2022/01/06 03:37:34;;;;;;;11.50;5.08;;;;;;;3.24;95.67;99109.59;1602197;88;25956;-78
2022/01/06 03:40:04;;;;;;;10.08;6.65;;;;;;;3.23;95.72;99110.61;1600267;88;25870;-79
2022/01/06 03:42:28;;;;;;;10.55;6.35;;;;;;;3.22;95.77;99107.63;1606135;88;27667;-79
2022/01/06 03:44:55;;;;;;;11.70;6.08;;;;;;;3.24;95.89;99105.62;1605794;88;25834;-79
2022/01/06 03:47:21;;;;;;;8.50;5.90;;;;;;;3.24;95.95;99112.23;1604170;88;25951;-79
2022/01/06 03:49:47;;;;;;;11.48;6.72;;;;;;;3.23;96.03;99124.63;1606087;88;26426;-79
2022/01/06 03:52:14;;;;;;;10.50;6.65;;;;;;;3.24;96.06;99125.47;1606579;88;25762;-79
2022/01/06 03:54:40;;;;;;;9.35;5.28;;;;;;;3.24;96.17;99126.79;1606363;88;28333;-79
2022/01/06 03:57:06;;;;;;;9.93;6.45;;;;;;;3.23;96.46;99123.84;1606901;88;25894;-79
2022/01/06 03:59:35;;;;;;;8.33;6.75;;;;;;;3.22;96.33;99123.50;1609015;88;26282;-79
2022/01/06 04:02:03;;;;;;;7.60;6.12;;;;;;;3.20;96.41;99129.47;1603836;88;26522;-79
2022/01/06 04:04:31;;;;;;;8.60;5.20;;;;;;;3.20;96.54;99134.27;1604392;88;26045;-78
2022/01/06 04:06:57;;;;;;;9.85;5.37;;;;;;;3.19;96.83;99130.48;1607564;88;27479;-78
2022/01/06 04:09:23;;;;;;;6.35;4.62;;;;;;;3.18;96.64;99143.38;1603927;88;26498;-79
2022/01/06 04:11:49;;;;;;;4.78;4.30;;;;;;;3.15;96.60;99137.92;1606192;88;25910;-79
2022/01/06 04:14:16;;;;;;;5.95;5.25;;;;;;;3.09;96.61;99146.08;1603238;88;26559;-79
2022/01/06 04:16:42;;;;;;;5.25;4.37;;;;;;;3.04;96.55;99155.02;1603229;88;25342;-79
2022/01/06 04:19:09;;;;;;;6.33;5.35;;;;;;;3.03;96.91;99152.55;1607435;88;28361;-79
2022/01/06 04:21:35;;;;;;;7.15;5.17;;;;;;;3.01;96.77;99159.35;1607180;88;26065;-79
2022/01/06 04:24:02;;;;;;;7.67;5.62;;;;;;;3.02;96.68;99166.27;1607509;88;25798;-79
2022/01/06 04:26:29;;;;;;;9.38;5.85;;;;;;;3.00;96.99;99155.05;1604112;88;25854;-79
2022/01/06 04:28:55;;;;;;;7.03;6.17;;;;;;;3.00;96.92;99162.98;1605683;88;26606;-78
2022/01/06 04:31:22;;;;;;;6.92;5.83;;;;;;;3.01;96.97;99163.81;1605828;88;27490;-79
2022/01/06 04:33:48;;;;;;;9.25;6.50;;;;;;;2.99;97.22;99161.84;1605251;88;25325;-79
2022/01/06 04:36:15;;;;;;;8.65;6.40;;;;;;;3.00;97.18;99155.53;1604456;88;25862;-79
2022/01/06 04:38:43;;;;;;;10.48;6.03;;;;;;;3.00;97.34;99153.72;1604016;88;25789;-79
2022/01/06 04:41:09;;;;;;;9.65;6.30;;;;;;;3.03;97.48;99159.17;1604278;88;26022;-79
2022/01/06 04:43:35;;;;;;;8.25;6.08;;;;;;;3.03;97.58;99162.65;1609715;88;27517;-79
2022/01/06 04:46:02;;;;;;;9.15;5.95;;;;;;;3.05;97.48;99169.08;1601807;88;25943;-79
2022/01/06 04:48:29;;;;;;;9.25;6.58;;;;;;;3.06;97.64;99168.06;1607622;88;25772;-78
2022/01/06 04:50:55;;;;;;;8.40;6.70;;;;;;;3.08;97.64;99170.86;1600673;88;26518;-78
2022/01/06 04:53:21;;;;;;;10.55;7.30;;;;;;;3.10;97.64;99173.36;1607207;88;25881;-79
2022/01/06 04:55:49;;;;;;;9.10;5.72;;;;;;;3.12;97.54;99176.13;1607986;88;28372;-78
2022/01/06 04:58:15;;;;;;;9.40;5.78;;;;;;;3.13;97.54;99176.47;1603954;88;26025;-78
2022/01/06 05:00:41;;;;;;;7.15;5.15;;;;;;;3.14;97.73;99174.13;1604223;88;25914;-78
2022/01/06 05:03:08;;;;;;;7.47;5.67;;;;;;;3.16;97.58;99187.20;1607006;88;26629;-78
2022/01/06 05:05:34;;;;;;;7.08;5.40;;;;;;;3.14;97.59;99187.88;1607740;88;26564;-79
2022/01/06 05:08:01;;;;;;;8.40;5.25;;;;;;;3.15;97.60;99190.84;1606339;88;27582;-79
2022/01/06 05:10:27;;;;;;;7.90;4.97;;;;;;;3.13;97.43;99189.70;1601885;88;26654;-79
2022/01/06 05:12:53;;;;;;;5.60;4.30;;;;;;;3.13;97.37;99188.38;1605731;88;25559;-79
2022/01/06 05:15:19;;;;;;;4.72;4.17;;;;;;;3.13;97.25;99191.52;1603198;88;25828;-79
2022/01/06 05:17:45;;;;;;;5.15;3.92;;;;;;;3.10;97.17;99194.00;1605204;88;25895;-79
2022/01/06 05:20:12;;;;;;;5.53;4.33;;;;;;;3.11;97.25;99185.57;1607618;88;27468;-79
2022/01/06 05:22:44;;;;;;;6.25;4.22;;;;;;;3.07;96.96;99193.04;1603617;88;25934;-79
2022/01/06 05:25:07;;;;;;;6.45;4.45;;;;;;;3.05;97.00;99200.81;1604498;88;26457;-79
2022/01/06 05:27:33;;;;;;;6.67;3.87;;;;;;;3.00;96.78;99203.98;1603129;88;26475;-79
2022/01/06 05:30:00;;;;;;;6.25;3.70;;;;;;;2.96;96.59;99206.64;1602699;88;25865;-79
2022/01/06 05:32:26;;;;;;;6.03;4.03;;;;;;;2.93;96.57;99200.89;1603066;88;27548;-79
2022/01/06 05:34:52;;;;;;;5.70;3.42;;;;;;;2.91;96.55;99208.97;1606242;88;26094;-79
2022/01/06 05:37:18;;;;;;;5.33;4.00;;;;;;;2.89;96.67;99207.00;1601813;88;25362;-79
2022/01/06 05:39:44;;;;;;;5.62;2.95;;;;;;;2.90;96.58;99219.73;1600027;88;26220;-79
2022/01/06 05:42:13;;;;;;;4.53;3.50;;;;;;;2.89;96.68;99220.71;1603129;88;25859;-79
2022/01/06 05:44:41;;;;;;;5.97;4.12;;;;;;;2.89;96.67;99229.97;1596332;88;27497;-78
2022/01/06 05:47:08;;;;;;;6.97;3.90;;;;;;;2.89;96.78;99227.32;1633579;86;26001;-79
2022/01/06 05:49:34;;;;;;;5.92;3.83;;;;;;;2.89;96.72;99230.80;1631482;86;26636;-79
2022/01/06 05:52:01;;;;;;;5.70;3.30;;;;;;;2.90;96.73;99231.63;1631824;86;25783;-78
2022/01/06 05:54:27;;;;;;;5.62;3.60;;;;;;;2.91;96.68;99235.91;1589625;88;25952;-79
2022/01/06 05:56:53;;;;;;;5.72;3.60;;;;;;;2.93;96.63;99240.56;1603116;88;27463;-79
2022/01/06 05:59:19;;;;;;;8.85;4.30;;;;;;;2.95;96.54;99243.86;1604478;88;26618;-79
2022/01/06 06:01:46;;;;;;;6.37;3.67;;;;;;;2.95;96.56;99246.50;1608143;88;26459;-79
2022/01/06 06:04:13;;;;;;;6.12;3.90;;;;;;;2.95;96.46;99247.30;1598700;88;26051;-78
2022/01/06 06:06:39;;;;;;;9.05;4.40;;;;;;;2.95;96.39;99257.88;1601261;88;25876;-79
2022/01/06 06:09:06;;;;;;;6.33;3.83;;;;;;;2.96;96.46;99262.68;1600229;88;27548;-78
2022/01/06 06:11:32;;;;;;;7.87;4.17;;;;;;;2.97;96.40;99266.98;1603033;88;26540;-79
2022/01/06 06:13:59;;;;;;;8.35;4.03;;;;;;;2.98;96.21;99268.63;1572011;90;26549;-79
2022/01/06 06:16:25;;;;;;;5.58;4.65;;;;;;;2.99;96.17;99265.80;1574721;89;26548;-79
2022/01/06 06:18:51;;;;;;;8.25;4.30;;;;;;;2.99;96.09;99265.80;1574578;90;26520;-78
2022/01/06 06:21:18;;;;;;;8.05;5.70;;;;;;;3.01;96.14;99265.64;1577367;90;27482;-79
2022/01/06 06:23:44;;;;;;;5.62;3.87;;;;;;;3.02;96.10;99273.41;1577126;90;25931;-79
2022/01/06 06:26:11;;;;;;;5.75;4.25;;;;;;;3.05;95.92;99292.91;1575853;90;25953;-78
2022/01/06 06:28:37;;;;;;;6.40;4.08;;;;;;;3.04;95.69;99300.51;1577144;89;26749;-79
2022/01/06 06:31:03;;;;;;;6.17;4.12;;;;;;;3.03;95.38;99305.98;1634630;86;25772;-79
2022/01/06 06:33:30;;;;;;;9.48;3.87;;;;;;;2.99;94.58;99309.44;1646375;86;27610;-81
2022/01/06 06:35:56;;;;;;;5.25;3.62;;;;;;;2.97;94.45;99316.72;1639207;86;26458;-79
2022/01/06 06:38:22;;;;;;;8.00;3.75;;;;;;;2.94;94.05;99321.53;1580665;89;25823;-79
2022/01/06 06:40:48;;;;;;;6.33;3.67;;;;;;;2.90;93.88;99318.91;1581460;90;25790;-79
2022/01/06 06:43:15;;;;;;;5.20;4.35;;;;;;;2.87;93.67;99321.88;1578806;90;25777;-79
2022/01/06 06:45:42;;;;;;;6.33;3.75;;;;;;;2.84;93.43;99320.91;1580262;90;28108;-79
2022/01/06 06:48:11;;;;;;;4.42;3.30;;;;;;;2.80;93.29;99323.56;1589657;89;25789;-79
2022/01/06 06:50:37;;;;;;;6.08;3.65;;;;;;;2.76;93.14;99327.02;1607988;88;26574;-78
2022/01/06 06:53:04;;;;;;;9.33;3.40;;;;;;;2.76;93.16;99331.50;1632064;86;25822;-78
2022/01/06 06:55:31;;;;;;;4.37;2.98;;;;;;;2.72;93.12;99330.99;1636097;86;25886;-79
2022/01/06 06:57:57;;;;;;;5.90;3.22;;;;;;;2.70;93.01;99334.80;1574282;90;27511;-79
2022/01/06 07:00:24;;;;;;;3.90;2.60;;;;;;;2.69;92.94;99338.45;1574242;88;25920;-79
2022/01/06 07:02:50;;;;;;;3.83;2.47;;;;;;;2.64;92.50;99353.48;1567245;90;25789;-79
2022/01/06 07:05:17;;;;;;;3.58;2.35;;;;;;;2.57;92.43;99353.81;1577969;90;26545;-78
2022/01/06 07:07:44;;;;;;;3.30;2.27;;;;;;;2.53;92.18;99361.74;1581088;90;25874;-79
2022/01/06 07:10:11;;;;;;;6.90;2.50;;;;;;;2.50;92.40;99368.70;1589523;89;27478;-78
2022/01/06 07:12:45;;;;;;;4.65;2.92;;;;;;;2.49;92.39;99373.64;1606405;88;25778;-79
2022/01/06 07:15:14;;;;;;;5.45;2.10;;;;;;;2.47;92.14;99377.44;1604307;88;25827;-79
2022/01/06 07:17:41;;;;;;;3.25;2.17;;;;;;;2.43;91.85;99390.65;1601415;88;26673;-78
2022/01/06 07:20:09;;;;;;;5.78;2.30;;;;;;;2.40;91.90;99389.16;1595586;87;25345;-78
2022/01/06 07:22:37;;;;;;;3.67;2.27;;;;;;;2.38;91.85;99400.39;1626708;86;28286;-78
2022/01/06 07:25:05;;;;;;;7.05;2.98;;;;;;;2.38;91.95;99397.74;1631204;86;25843;-79
2022/01/06 07:27:31;;;;;;;6.35;3.87;;;;;;;2.36;91.95;99395.77;1634113;86;25831;-79
2022/01/06 07:29:57;;;;;;;7.22;3.75;;;;;;;2.39;92.09;99404.70;1583104;89;26551;-78
2022/01/06 07:32:24;;;;;;;92.08;41.02;;;;;;;2.38;92.14;99409.63;1630732;86;25911;-79
2022/01/06 07:34:52;;;;;;;17.10;8.50;;;;;;;2.41;92.24;99419.06;1632310;86;27517;-77
2022/01/06 07:37:18;;;;;;;23.95;10.15;;;;;;;2.42;92.04;99427.33;1633692;86;25806;-79
2022/01/06 07:39:44;;;;;;;24.02;10.88;;;;;;;2.39;91.77;99427.16;1581218;90;25793;-78
2022/01/06 07:42:11;;;;;;;17.42;9.23;;;;;;;2.35;91.69;99427.95;1580870;90;25890;-79
2022/01/06 07:44:37;;;;;;;18.87;10.13;;;;;;;2.33;91.41;99427.81;1583297;90;26255;-79
2022/01/06 07:47:04;;;;;;;21.52;15.75;;;;;;;2.31;91.33;99434.56;1579236;90;27582;-78
2022/01/06 07:49:30;;;;;;;25.32;15.80;;;;;;;2.31;91.31;99440.33;1580618;90;25935;-79
2022/01/06 07:51:57;;;;;;;13.78;10.48;;;;;;;2.29;91.24;99441.83;1579406;90;25855;-79
2022/01/06 07:54:23;;;;;;;8.63;6.00;;;;;;;2.30;91.09;99440.85;1579477;89;26671;-80
2022/01/06 07:56:50;;;;;;;23.25;7.72;;;;;;;2.31;90.95;99444.30;1590489;90;25865;-79
2022/01/06 07:59:16;;;;;;;9.55;5.78;;;;;;;2.32;91.16;99449.93;1581527;89;27674;-82
2022/01/06 08:01:42;;;;;;;7.90;6.25;;;;;;;2.33;90.96;99448.95;1577760;90;25755;-82
2022/01/06 08:04:09;;;;;;;9.30;5.65;;;;;;;2.33;91.09;99454.23;1578451;90;25844;-82
2022/01/06 08:06:35;;;;;;;8.15;5.12;;;;;;;2.34;90.64;99459.84;1581153;90;26614;-81
2022/01/06 08:09:01;;;;;;;8.28;5.65;;;;;;;2.32;90.71;99455.21;1581494;90;26499;-82
2022/01/06 08:11:27;;;;;;;4.45;3.30;;;;;;;2.33;90.68;99459.00;1578841;90;26918;-82
2022/01/06 08:13:53;;;;;;;10.63;6.72;;;;;;;2.32;90.35;99460.50;1580782;90;25989;-81
2022/01/06 08:16:20;;;;;;;8.05;5.47;;;;;;;2.32;90.48;99464.45;1580523;90;25917;-82
2022/01/06 08:18:46;;;;;;;7.47;4.80;;;;;;;2.33;90.55;99462.16;1571807;90;25880;-81
2022/01/06 08:21:12;;;;;;;7.20;3.75;;;;;;;2.34;90.62;99455.88;1581793;90;25933;-82
2022/01/06 08:23:39;;;;;;;5.10;3.02;;;;;;;2.37;90.75;99458.70;1589219;89;27501;-81
2022/01/06 08:26:07;;;;;;;6.20;3.37;;;;;;;2.41;90.72;99464.81;1607086;88;25865;-82
2022/01/06 08:28:34;;;;;;;6.95;3.83;;;;;;;2.43;90.72;99468.13;1600236;88;25347;-81
2022/01/06 08:31:00;;;;;;;8.95;5.90;;;;;;;2.45;90.06;99467.95;1604461;88;26620;-82
2022/01/06 08:33:27;;;;;;;7.05;3.60;;;;;;;2.45;90.14;99475.87;1602185;88;25985;-81
2022/01/06 08:35:53;;;;;;;5.85;3.98;;;;;;;2.44;90.31;99489.58;1599496;88;27559;-81
2022/01/06 08:38:20;;;;;;;8.58;3.60;;;;;;;2.45;90.31;99491.25;1607175;88;25827;-79
2022/01/06 08:40:46;;;;;;;12.00;9.63;;;;;;;2.48;90.48;99499.35;1605339;88;25335;-79
2022/01/06 08:43:12;;;;;;;10.65;9.03;;;;;;;2.50;89.92;99496.88;1607749;88;26683;-79
2022/01/06 08:45:40;;;;;;;12.28;8.45;;;;;;;2.52;90.14;99506.80;1607714;88;26467;-80
2022/01/06 08:48:07;;;;;;;6.20;3.35;;;;;;;2.58;90.66;99505.31;1611432;88;28300;-79
2022/01/06 08:50:34;;;;;;;10.55;6.83;;;;;;;2.62;90.33;99506.15;1605170;88;25803;-79
2022/01/06 08:53:01;;;;;;;19.75;13.85;;;;;;;2.63;89.80;99503.82;1597715;87;25800;-79
2022/01/06 08:55:27;;;;;;;13.83;5.20;;;;;;;2.64;90.31;99502.84;1625381;86;26438;-79
2022/01/06 08:57:54;;;;;;;12.73;4.28;;;;;;;2.66;89.78;99503.51;1637046;86;26522;-80
2022/01/06 09:00:21;;;;;;;6.80;3.80;;;;;;;2.65;89.58;99510.29;1633451;86;27728;-79
2022/01/06 09:02:47;;;;;;;8.15;3.87;;;;;;;2.66;89.75;99507.96;1634720;86;26617;-81
2022/01/06 09:05:14;;;;;;;7.53;3.45;;;;;;;2.63;89.03;99516.23;1635277;86;25726;-79
2022/01/06 09:07:42;;;;;;;8.85;3.62;;;;;;;2.60;89.41;99518.70;1629423;86;25835;-79
2022/01/06 09:10:10;;;;;;;12.05;7.58;;;;;;;2.58;89.34;99523.81;1574335;90;25913;-79
2022/01/06 09:12:37;;;;;;;12.68;6.75;;;;;;;2.57;89.52;99535.36;1599451;88;27534;-78
2022/01/06 09:15:06;;;;;;;11.10;5.95;;;;;;;2.56;89.26;99529.76;1604002;88;25372;-79
2022/01/06 09:17:35;;;;;;;8.10;4.15;;;;;;;2.54;89.07;99534.38;1598812;88;25844;-79
2022/01/06 09:20:00;;;;;;;10.38;5.78;;;;;;;2.52;88.73;99535.04;1636881;86;25842;-79
2022/01/06 09:22:27;;;;;;;12.93;4.65;;;;;;;2.50;89.13;99541.81;1632780;86;26529;-79
2022/01/06 09:24:53;;;;;;;6.83;3.35;;;;;;;2.49;89.07;99540.64;1573241;90;27456;-79
2022/01/06 09:27:19;;;;;;;6.00;3.65;;;;;;;2.49;89.03;99549.89;1578866;90;26042;-80
2022/01/06 09:29:45;;;;;;;10.00;4.30;;;;;;;2.50;89.06;99547.59;1593902;88;25993;-79
2022/01/06 09:32:12;;;;;;;10.35;4.25;;;;;;;2.47;88.67;99552.70;1590995;89;26598;-79
2022/01/06 09:34:38;;;;;;;11.28;4.87;;;;;;;2.45;89.00;99556.48;1602581;88;25848;-79
2022/01/06 09:37:04;;;;;;;8.38;5.60;;;;;;;2.44;88.80;99552.20;1592236;89;27561;-78
2022/01/06 09:39:30;;;;;;;13.80;4.35;;;;;;;2.41;88.76;99548.06;1587717;88;25819;-79
2022/01/06 09:41:56;;;;;;;12.43;5.15;;;;;;;2.41;88.92;99549.38;1587244;90;26174;-79
2022/01/06 09:44:23;;;;;;;13.50;5.50;;;;;;;2.40;88.89;99549.03;1580010;90;26051;-79
2022/01/06 09:46:49;;;;;;;14.33;6.17;;;;;;;2.40;89.05;99558.77;1576893;90;26048;-79
2022/01/06 09:49:16;;;;;;;16.45;8.50;;;;;;;2.39;88.80;99565.89;1573227;90;28485;-79
2022/01/06 09:51:45;;;;;;;23.12;9.65;;;;;;;2.38;89.00;99570.83;1573255;90;25889;-79
2022/01/06 09:54:12;;;;;;;19.90;9.20;;;;;;;2.38;88.75;99569.99;1576068;90;25844;-79
2022/01/06 09:56:38;;;;;;;12.03;6.67;;;;;;;2.38;88.98;99573.95;1602787;88;26065;-79
2022/01/06 09:59:05;;;;;;;9.80;4.72;;;;;;;2.39;89.21;99573.83;1596469;88;26013;-79
2022/01/06 10:01:31;;;;;;;8.58;4.95;;;;;;;2.42;89.02;99577.45;1623640;86;27492;-80
2022/01/06 10:03:58;;;;;;;8.75;4.78;;;;;;;2.43;89.09;99577.80;1602658;88;25344;-79
2022/01/06 10:06:27;;;;;;;28.45;14.30;;;;;;;2.45;88.87;99586.88;1608406;88;25790;-79
2022/01/06 10:08:59;;;;;;;16.62;10.35;;;;;;;2.43;88.35;99581.77;1635484;86;25839;-78
2022/01/06 10:11:29;;;;;;;10.60;5.30;;;;;;;2.41;88.82;99586.86;1629224;86;25847;-79
2022/01/06 10:14:03;;;;;;;9.10;5.03;;;;;;;2.40;88.70;99587.84;1612401;86;27657;-80
2022/01/06 10:16:29;;;;;;;15.95;6.70;;;;;;;2.39;88.47;99597.61;1642701;86;25967;-79
2022/01/06 10:19:10;;;;;;;18.50;7.67;;;;;;;2.35;88.65;99595.75;1634509;86;25615;-79
2022/01/06 10:21:44;;;;;;;26.90;12.30;;;;;;;2.32;88.32;99596.58;1601312;88;25808;-79
2022/01/06 10:24:15;;;;;;;36.98;23.05;;;;;;;2.31;88.55;99589.14;1630594;86;25955;-79
2022/01/06 10:27:07;;;;;;;14.73;6.87;;;;;;;2.31;88.82;99598.87;1634329;86;28334;-79
2022/01/06 10:29:37;;;;;;;12.18;8.13;;;;;;;2.31;88.96;99597.55;1629403;86;25906;-78
2022/01/06 10:32:18;;;;;;;12.80;8.95;;;;;;;2.31;88.99;99602.34;1624891;86;26802;-79
2022/01/06 10:34:48;;;;;;;19.37;11.97;;;;;;;2.32;88.95;99605.82;1630084;86;25795;-79
2022/01/06 10:37:29;;;;;;;16.35;11.70;;;;;;;2.28;88.87;99607.13;1635994;86;25822;-79
2022/01/06 10:40:15;;;;;;;17.35;11.08;;;;;;;2.25;89.21;99610.91;1636657;86;28326;-78
2022/01/06 10:42:49;;;;;;;24.18;12.25;;;;;;;2.27;89.52;99625.27;1576165;90;25952;-79
2022/01/06 10:45:22;;;;;;;21.48;8.68;;;;;;;2.29;89.84;99628.10;1577813;90;25957;-78
2022/01/06 10:47:56;;;;;;;29.63;17.12;;;;;;;2.31;89.77;99624.80;1578603;89;26742;-78
2022/01/06 10:50:30;;;;;;;70.22;30.70;;;;;;;2.33;89.86;99632.59;1580754;90;26825;-78
2022/01/06 10:53:06;;;;;;;36.08;17.30;;;;;;;2.34;89.80;99624.50;1573923;90;27456;-79
2022/01/06 10:55:37;;;;;;;39.08;19.15;;;;;;;2.35;90.25;99626.66;1575825;90;25984;-79
2022/01/06 10:58:25;;;;;;;14.98;8.55;;;;;;;2.38;90.59;99630.29;1576862;90;25577;-79
2022/01/06 11:01:01;;;;;;;11.10;7.08;;;;;;;2.41;90.56;99631.30;1584413;88;26299;-79
2022/01/06 11:03:36;;;;;;;18.67;9.50;;;;;;;2.44;90.75;99624.36;1639759;86;26031;-79
2022/01/06 11:06:06;;;;;;;14.13;8.35;;;;;;;2.45;90.83;99628.67;1642224;86;27463;-76
2022/01/06 11:08:39;;;;;;;15.15;7.55;;;;;;;2.45;90.54;99630.48;1638110;86;25771;-77
2022/01/06 11:13:47;;;;;;;13.28;7.08;;;;;;;2.41;90.63;99630.47;1637421;86;25957;-77
2022/01/06 11:16:17;;;;;;;15.72;8.20;;;;;;;2.42;90.86;99640.07;1637468;86;25968;-77
2022/01/06 11:18:53;;;;;;;7.97;4.72;;;;;;;2.41;90.63;99650.29;1639401;86;27500;-77
2022/01/06 11:21:26;;;;;;;6.53;3.33;;;;;;;2.32;90.55;99666.59;1636619;86;25894;-77
2022/01/06 11:24:19;;;;;;;7.65;3.20;;;;;;;2.08;89.34;99663.31;1617999;86;26414;-78
2022/01/06 11:27:07;;;;;;;3.02;2.27;;;;;;;1.85;88.83;99674.05;1640803;86;26587;-77
2022/01/06 11:29:40;;;;;;;5.25;3.05;;;;;;;1.62;88.61;99679.97;1636013;86;25978;-77
2022/01/06 11:32:23;;;;;;;4.28;3.40;;;;;;;1.49;88.07;99685.63;1640326;86;27492;-78
2022/01/06 11:35:07;;;;;;;7.10;3.70;;;;;;;1.38;87.88;99678.78;1635279;86;25933;-77
2022/01/06 11:37:47;;;;;;;5.53;4.37;;;;;;;1.28;87.08;99695.66;1639912;86;25924;-77
2022/01/06 11:40:18;;;;;;;10.90;5.10;;;;;;;1.23;87.56;99700.06;1632633;86;26035;-78
2022/01/06 11:42:55;;;;;;;5.83;4.47;;;;;;;1.25;88.12;99707.81;1637854;86;26052;-78
2022/01/06 11:45:21;;;;;;;6.30;4.10;;;;;;;1.27;88.24;99713.77;1637461;86;27170;-77
2022/01/06 11:48:01;;;;;;;5.80;4.40;;;;;;;1.23;87.67;99719.84;1641138;86;26217;-77
2022/01/06 11:50:28;;;;;;;5.00;3.67;;;;;;;1.23;87.51;99722.96;1638389;86;26579;-77
2022/01/06 11:52:59;;;;;;;6.47;4.12;;;;;;;1.21;86.88;99723.61;1627660;86;26560;-77